Myton, Utah
Current Conditions -  °F | °C
As of 6:53 AM on Friday 31 Oct 2014 (Local Time) from KVEL Reporting Station
Clear Clear  
Wind Chill: 29°   Ceiling: Unl
Heat Index: 34°   Visibility: 10mi
Dew Point: 26°   Wind: 6mph
Humidity: 73%   Direction: 270°W
Pressure: 30.21"   Gusts: NA
Location:  40.19°N, 110.06°W
Report Text: KVEL 311253Z AUTO 27005KT 10SM CLR 01/M03 A3021 RMK AO2 SLP221 T00111033
Loading
Personal Weather Stations






























Interactive Weather Map
Tropical Storm Tracking
New forecast layout! Learn more

10-Day Weather Forecast

Advertisements
Track Severe Weather on mobile